sensor_id;sensor_type;location;lat;lon;timestamp;pressure;altitude;pressure_sealevel;temperature;humidity
11347;BME280;5728;42.722;23.258;2022-12-01T00:00:14;94987.06;;;4.39;88.32
11347;BME280;5728;42.722;23.258;2022-12-01T00:02:40;94971.72;;;4.44;87.90
11347;BME280;5728;42.722;23.258;2022-12-01T00:05:09;94977.59;;;4.32;87.65
11347;BME280;5728;42.722;23.258;2022-12-01T00:07:35;94950.56;;;3.91;88.57
11347;BME280;5728;42.722;23.258;2022-12-01T00:10:03;94969.56;;;4.05;87.94
11347;BME280;5728;42.722;23.258;2022-12-01T00:12:47;94979.16;;;4.21;88.42
11347;BME280;5728;42.722;23.258;2022-12-01T00:15:14;94968.72;;;4.06;88.15
11347;BME280;5728;42.722;23.258;2022-12-01T00:17:41;94943.69;;;3.87;88.58
11347;BME280;5728;42.722;23.258;2022-12-01T00:20:12;94965.91;;;3.88;88.01
11347;BME280;5728;42.722;23.258;2022-12-01T00:22:41;94948.47;;;3.60;88.47
11347;BME280;5728;42.722;23.258;2022-12-01T00:25:08;94981.34;;;3.91;88.76
11347;BME280;5728;42.722;23.258;2022-12-01T00:27:35;94968.72;;;4.06;87.32
11347;BME280;5728;42.722;23.258;2022-12-01T00:30:03;95006.22;;;3.97;87.86
11347;BME280;5728;42.722;23.258;2022-12-01T00:32:30;94977.66;;;3.71;87.67
11347;BME280;5728;42.722;23.258;2022-12-01T00:34:57;94973.03;;;4.09;88.03
11347;BME280;5728;42.722;23.258;2022-12-01T00:37:25;94966.09;;;4.00;87.60
11347;BME280;5728;42.722;23.258;2022-12-01T00:39:52;94961.97;;;4.14;87.25
11347;BME280;5728;42.722;23.258;2022-12-01T00:42:19;94966.13;;;4.05;87.84
11347;BME280;5728;42.722;23.258;2022-12-01T00:44:46;94954.00;;;3.90;87.42
11347;BME280;5728;42.722;23.258;2022-12-01T00:47:13;94933.38;;;3.84;86.97
11347;BME280;5728;42.722;23.258;2022-12-01T00:49:40;94945.59;;;4.03;87.08
11347;BME280;5728;42.722;23.258;2022-12-01T00:52:09;94961.69;;;3.93;86.66
11347;BME280;5728;42.722;23.258;2022-12-01T00:54:38;94973.72;;;3.96;86.73
11347;BME280;5728;42.722;23.258;2022-12-01T00:57:06;94946.06;;;3.72;87.66
11347;BME280;5728;42.722;23.258;2022-12-01T00:59:33;94981.19;;;3.79;87.16
11347;BME280;5728;42.722;23.258;2022-12-01T01:02:00;94955.69;;;3.91;86.90
11347;BME280;5728;42.722;23.258;2022-12-01T01:04:28;94957.28;;;3.80;87.87
11347;BME280;5728;42.722;23.258;2022-12-01T01:06:55;94955.63;;;3.85;87.61
11347;BME280;5728;42.722;23.258;2022-12-01T01:09:22;94954.78;;;3.86;87.22
11347;BME280;5728;42.722;23.258;2022-12-01T01:11:51;94959.28;;;4.02;86.19
11347;BME280;5728;42.722;23.258;2022-12-01T01:14:18;94957.47;;;3.95;86.44
11347;BME280;5728;42.722;23.258;2022-12-01T01:16:45;94954.72;;;3.81;86.37
11347;BME280;5728;42.722;23.258;2022-12-01T01:19:12;94953.06;;;3.85;85.14
11347;BME280;5728;42.722;23.258;2022-12-01T01:21:39;94941.91;;;3.80;85.95
11347;BME280;5728;42.722;23.258;2022-12-01T01:24:06;94921.25;;;3.71;85.70
11347;BME280;5728;42.722;23.258;2022-12-01T01:26:33;94943.44;;;3.69;86.38
11347;BME280;5728;42.722;23.258;2022-12-01T01:29:04;94927.09;;;3.59;86.64
11347;BME280;5728;42.722;23.258;2022-12-01T01:31:33;94928.16;;;3.76;86.29
11347;BME280;5728;42.722;23.258;2022-12-01T01:34:01;94945.28;;;3.77;86.66
11347;BME280;5728;42.722;23.258;2022-12-01T01:36:28;94929.00;;;3.75;87.15
11347;BME280;5728;42.722;23.258;2022-12-01T01:38:55;94932.28;;;3.64;86.99
11347;BME280;5728;42.722;23.258;2022-12-01T01:41:22;94936.38;;;3.53;87.83
11347;BME280;5728;42.722;23.258;2022-12-01T01:43:51;94925.31;;;3.55;87.90
11347;BME280;5728;42.722;23.258;2022-12-01T01:46:21;94921.84;;;3.52;87.85
11347;BME280;5728;42.722;23.258;2022-12-01T01:48:50;94924.41;;;3.52;88.56
11347;BME280;5728;42.722;23.258;2022-12-01T01:51:23;94927.81;;;3.51;87.94
11347;BME280;5728;42.722;23.258;2022-12-01T01:53:54;94920.31;;;3.64;87.51
11347;BME280;5728;42.722;23.258;2022-12-01T01:56:22;94904.69;;;3.46;86.59
11347;BME280;5728;42.722;23.258;2022-12-01T01:58:49;94909.09;;;3.56;87.37
11347;BME280;5728;42.722;23.258;2022-12-01T02:01:17;94917.56;;;3.51;87.64
11347;BME280;5728;42.722;23.258;2022-12-01T02:03:46;94924.38;;;3.49;87.54
11347;BME280;5728;42.722;23.258;2022-12-01T02:06:13;94912.06;;;3.23;88.63
11347;BME280;5728;42.722;23.258;2022-12-01T02:08:40;94916.63;;;3.44;88.65
11347;BME280;5728;42.722;23.258;2022-12-01T02:11:27;94909.50;;;3.22;88.62
11347;BME280;5728;42.722;23.258;2022-12-01T02:14:06;94901.97;;;3.36;89.52
11347;BME280;5728;42.722;23.258;2022-12-01T02:16:42;94902.13;;;3.45;89.19
11347;BME280;5728;42.722;23.258;2022-12-01T02:19:34;94906.22;;;3.32;89.76
11347;BME280;5728;42.722;23.258;2022-12-01T02:22:16;94907.03;;;3.30;89.70
11347;BME280;5728;42.722;23.258;2022-12-01T02:25:07;94897.41;;;3.15;89.70
11347;BME280;5728;42.722;23.258;2022-12-01T02:30:41;94905.59;;;3.50;89.43
11347;BME280;5728;42.722;23.258;2022-12-01T02:33:13;94909.09;;;3.55;89.26
11347;BME280;5728;42.722;23.258;2022-12-01T02:35:46;94897.16;;;3.57;89.41
11347;BME280;5728;42.722;23.258;2022-12-01T02:38:20;94900.47;;;3.50;89.65
11347;BME280;5728;42.722;23.258;2022-12-01T02:40:55;94896.06;;;3.41;90.18
11347;BME280;5728;42.722;23.258;2022-12-01T02:43:30;94898.69;;;3.44;90.23
11347;BME280;5728;42.722;23.258;2022-12-01T02:46:03;94901.31;;;3.49;89.10
11347;BME280;5728;42.722;23.258;2022-12-01T02:48:33;94852.31;;;3.25;90.15
11347;BME280;5728;42.722;23.258;2022-12-01T02:51:05;94901.09;;;3.32;89.77
11347;BME280;5728;42.722;23.258;2022-12-01T02:53:33;94895.03;;;3.29;89.56
11347;BME280;5728;42.722;23.258;2022-12-01T02:56:00;94907.31;;;3.51;89.65
11347;BME280;5728;42.722;23.258;2022-12-01T02:58:27;94899.41;;;3.36;89.42
11347;BME280;5728;42.722;23.258;2022-12-01T03:01:10;94903.72;;;3.38;89.68
11347;BME280;5728;42.722;23.258;2022-12-01T03:03:59;94906.97;;;3.27;90.31
11347;BME280;5728;42.722;23.258;2022-12-01T03:06:35;94902.72;;;3.27;90.22
11347;BME280;5728;42.722;23.258;2022-12-01T03:09:12;94908.44;;;3.09;90.82
11347;BME280;5728;42.722;23.258;2022-12-01T03:11:47;94903.44;;;3.17;90.73
11347;BME280;5728;42.722;23.258;2022-12-01T03:14:23;94898.63;;;3.40;89.95
11347;BME280;5728;42.722;23.258;2022-12-01T03:16:59;94856.41;;;3.15;90.29
11347;BME280;5728;42.722;23.258;2022-12-01T03:19:35;94921.00;;;3.53;88.87
11347;BME280;5728;42.722;23.258;2022-12-01T03:22:08;94902.03;;;3.39;88.69
11347;BME280;5728;42.722;23.258;2022-12-01T03:24:37;94909.75;;;3.42;90.03
11347;BME280;5728;42.722;23.258;2022-12-01T03:27:07;94890.31;;;3.59;90.21
11347;BME280;5728;42.722;23.258;2022-12-01T03:29:38;94863.69;;;3.48;88.68
11347;BME280;5728;42.722;23.258;2022-12-01T03:32:12;94894.28;;;3.34;89.87
11347;BME280;5728;42.722;23.258;2022-12-01T03:34:44;94902.88;;;3.39;90.44
11347;BME280;5728;42.722;23.258;2022-12-01T03:37:21;94862.81;;;3.46;89.79
11347;BME280;5728;42.722;23.258;2022-12-01T03:39:52;94872.88;;;3.31;89.02
11347;BME280;5728;42.722;23.258;2022-12-01T03:42:23;94866.88;;;3.30;88.62
11347;BME280;5728;42.722;23.258;2022-12-01T03:44:53;94896.28;;;3.56;89.13
11347;BME280;5728;42.722;23.258;2022-12-01T03:47:24;94888.38;;;3.40;88.80
11347;BME280;5728;42.722;23.258;2022-12-01T03:49:55;94858.34;;;3.31;89.17
11347;BME280;5728;42.722;23.258;2022-12-01T03:52:29;94860.72;;;3.17;89.00
11347;BME280;5728;42.722;23.258;2022-12-01T03:55:07;94889.81;;;3.22;88.61
11347;BME280;5728;42.722;23.258;2022-12-01T03:57:41;94867.19;;;2.91;89.53
11347;BME280;5728;42.722;23.258;2022-12-01T04:00:11;94881.03;;;3.05;89.43
11347;BME280;5728;42.722;23.258;2022-12-01T04:02:40;94881.19;;;3.14;89.63
11347;BME280;5728;42.722;23.258;2022-12-01T04:05:09;94901.84;;;3.27;89.08
11347;BME280;5728;42.722;23.258;2022-12-01T04:07:37;94896.13;;;3.46;88.06
11347;BME280;5728;42.722;23.258;2022-12-01T04:10:05;94912.34;;;3.43;87.52
11347;BME280;5728;42.722;23.258;2022-12-01T04:12:33;94892.53;;;3.32;86.90
11347;BME280;5728;42.722;23.258;2022-12-01T04:15:00;94884.78;;;3.29;87.29
11347;BME280;5728;42.722;23.258;2022-12-01T04:17:28;94889.00;;;3.22;86.71
11347;BME280;5728;42.722;23.258;2022-12-01T04:19:59;94886.66;;;3.39;87.49
11347;BME280;5728;42.722;23.258;2022-12-01T04:22:31;94900.28;;;3.35;87.50
11347;BME280;5728;42.722;23.258;2022-12-01T04:24:59;94891.25;;;3.62;87.81
11347;BME280;5728;42.722;23.258;2022-12-01T04:27:26;94862.75;;;3.43;86.41
11347;BME280;5728;42.722;23.258;2022-12-01T04:29:53;94911.50;;;3.46;87.01
11347;BME280;5728;42.722;23.258;2022-12-01T04:32:20;94907.31;;;3.51;86.39
11347;BME280;5728;42.722;23.258;2022-12-01T04:34:46;94892.84;;;3.54;86.14
11347;BME280;5728;42.722;23.258;2022-12-01T04:37:15;94906.31;;;3.41;86.38
11347;BME280;5728;42.722;23.258;2022-12-01T04:39:42;94873.78;;;3.34;87.31
11347;BME280;5728;42.722;23.258;2022-12-01T04:42:09;94910.53;;;3.38;86.86
11347;BME280;5728;42.722;23.258;2022-12-01T04:44:36;94915.59;;;3.32;87.55
11347;BME280;5728;42.722;23.258;2022-12-01T04:47:04;94914.78;;;3.36;86.96
11347;BME280;5728;42.722;23.258;2022-12-01T04:49:31;94913.19;;;3.44;86.55
11347;BME280;5728;42.722;23.258;2022-12-01T04:51:59;94912.44;;;3.51;86.88
11347;BME280;5728;42.722;23.258;2022-12-01T04:54:27;94907.91;;;3.32;86.63
11347;BME280;5728;42.722;23.258;2022-12-01T04:56:54;94894.84;;;3.13;86.82
11347;BME280;5728;42.722;23.258;2022-12-01T04:59:21;94911.50;;;3.44;86.32
11347;BME280;5728;42.722;23.258;2022-12-01T05:01:48;94924.47;;;3.55;86.00
11347;BME280;5728;42.722;23.258;2022-12-01T05:04:15;94908.75;;;3.31;87.35
11347;BME280;5728;42.722;23.258;2022-12-01T05:06:42;94915.72;;;3.41;86.40
11347;BME280;5728;42.722;23.258;2022-12-01T05:09:12;94912.38;;;3.48;86.15
11347;BME280;5728;42.722;23.258;2022-12-01T05:11:40;94913.25;;;3.48;85.80
11347;BME280;5728;42.722;23.258;2022-12-01T05:14:07;94925.34;;;3.58;85.23
11347;BME280;5728;42.722;23.258;2022-12-01T05:16:33;94926.72;;;3.34;85.58
11347;BME280;5728;42.722;23.258;2022-12-01T05:19:02;94920.78;;;3.38;86.01
11347;BME280;5728;42.722;23.258;2022-12-01T05:21:47;94932.81;;;3.42;85.33
11347;BME280;5728;42.722;23.258;2022-12-01T05:24:15;94925.00;;;3.33;86.18
11347;BME280;5728;42.722;23.258;2022-12-01T05:26:44;94917.22;;;3.27;87.35
11347;BME280;5728;42.722;23.258;2022-12-01T05:29:11;94918.44;;;3.51;86.42
11347;BME280;5728;42.722;23.258;2022-12-01T05:31:38;94924.41;;;3.52;86.73
11347;BME280;5728;42.722;23.258;2022-12-01T05:34:05;94897.41;;;3.13;86.51
11347;BME280;5728;42.722;23.258;2022-12-01T05:36:32;94924.16;;;3.34;87.02
11347;BME280;5728;42.722;23.258;2022-12-01T05:39:00;94930.97;;;3.32;86.89
11347;BME280;5728;42.722;23.258;2022-12-01T05:41:27;94930.81;;;3.22;86.58
11347;BME280;5728;42.722;23.258;2022-12-01T05:43:55;94923.22;;;3.27;86.68
11347;BME280;5728;42.722;23.258;2022-12-01T05:46:22;94932.38;;;3.13;86.89
11347;BME280;5728;42.722;23.258;2022-12-01T05:48:48;94929.06;;;3.18;87.79
11347;BME280;5728;42.722;23.258;2022-12-01T05:51:17;94908.16;;;2.91;87.84
11347;BME280;5728;42.722;23.258;2022-12-01T05:53:44;94921.97;;;3.01;87.53
11347;BME280;5728;42.722;23.258;2022-12-01T05:56:11;94937.50;;;3.11;87.45
11347;BME280;5728;42.722;23.258;2022-12-01T05:58:38;94924.53;;;3.02;87.31
11347;BME280;5728;42.722;23.258;2022-12-01T06:01:06;94932.03;;;2.89;88.68
11347;BME280;5728;42.722;23.258;2022-12-01T06:03:34;94914.16;;;2.95;88.49
11347;BME280;5728;42.722;23.258;2022-12-01T06:06:01;94940.03;;;3.10;87.78
11347;BME280;5728;42.722;23.258;2022-12-01T06:08:28;94934.06;;;3.09;88.49
11347;BME280;5728;42.722;23.258;2022-12-01T06:10:55;94927.91;;;2.98;88.82
11347;BME280;5728;42.722;23.258;2022-12-01T06:13:22;94943.31;;;3.01;89.29
11347;BME280;5728;42.722;23.258;2022-12-01T06:15:56;94939.94;;;3.04;89.19
11347;BME280;5728;42.722;23.258;2022-12-01T06:18:24;94938.97;;;2.97;89.54
11347;BME280;5728;42.722;23.258;2022-12-01T06:20:51;94940.75;;;3.01;89.70
11347;BME280;5728;42.722;23.258;2022-12-01T06:23:18;94941.00;;;3.16;88.66
11347;BME280;5728;42.722;23.258;2022-12-01T06:25:45;94943.50;;;3.13;88.42
11347;BME280;5728;42.722;23.258;2022-12-01T06:28:11;94946.75;;;3.03;88.85
11347;BME280;5728;42.722;23.258;2022-12-01T06:30:38;94939.31;;;3.18;89.54
11347;BME280;5728;42.722;23.258;2022-12-01T06:33:05;94936.88;;;3.28;88.49
11347;BME280;5728;42.722;23.258;2022-12-01T06:35:34;94926.69;;;3.31;89.00
11347;BME280;5728;42.722;23.258;2022-12-01T06:38:00;94930.81;;;3.19;89.27
11347;BME280;5728;42.722;23.258;2022-12-01T06:40:28;94925.41;;;3.01;89.71
11347;BME280;5728;42.722;23.258;2022-12-01T06:42:58;94944.31;;;3.11;90.35
11347;BME280;5728;42.722;23.258;2022-12-01T06:45:25;94925.44;;;3.04;89.86
11347;BME280;5728;42.722;23.258;2022-12-01T06:47:52;94942.44;;;3.01;90.22
11347;BME280;5728;42.722;23.258;2022-12-01T06:50:19;94945.97;;;3.07;90.21
11347;BME280;5728;42.722;23.258;2022-12-01T06:52:47;94937.41;;;3.05;90.31
11347;BME280;5728;42.722;23.258;2022-12-01T06:55:15;94947.69;;;3.08;91.09
11347;BME280;5728;42.722;23.258;2022-12-01T06:57:41;94942.47;;;3.02;91.54
11347;BME280;5728;42.722;23.258;2022-12-01T07:00:09;94936.25;;;2.87;92.83
11347;BME280;5728;42.722;23.258;2022-12-01T07:02:36;94938.88;;;2.91;92.87
11347;BME280;5728;42.722;23.258;2022-12-01T07:05:05;94958.56;;;2.94;93.60
11347;BME280;5728;42.722;23.258;2022-12-01T07:07:34;94930.84;;;2.70;93.60
11347;BME280;5728;42.722;23.258;2022-12-01T07:10:05;94936.72;;;2.63;95.58
11347;BME280;5728;42.722;23.258;2022-12-01T07:12:32;94937.47;;;2.57;95.26
11347;BME280;5728;42.722;23.258;2022-12-01T07:14:58;94947.75;;;2.61;95.66
11347;BME280;5728;42.722;23.258;2022-12-01T07:17:26;94923.84;;;2.60;96.11
11347;BME280;5728;42.722;23.258;2022-12-01T07:19:52;94937.25;;;2.47;96.52
11347;BME280;5728;42.722;23.258;2022-12-01T07:22:19;94951.00;;;2.52;97.77
11347;BME280;5728;42.722;23.258;2022-12-01T07:24:46;94950.06;;;2.47;97.84
11347;BME280;5728;42.722;23.258;2022-12-01T07:27:14;94946.81;;;2.54;98.17
11347;BME280;5728;42.722;23.258;2022-12-01T07:29:41;94950.94;;;2.47;97.27
11347;BME280;5728;42.722;23.258;2022-12-01T07:32:08;94922.59;;;2.37;97.98
11347;BME280;5728;42.722;23.258;2022-12-01T07:34:35;94964.84;;;2.62;97.72
11347;BME280;5728;42.722;23.258;2022-12-01T07:37:01;94938.59;;;2.25;99.12
11347;BME280;5728;42.722;23.258;2022-12-01T07:39:28;94938.66;;;2.30;99.50
11347;BME280;5728;42.722;23.258;2022-12-01T07:41:55;94936.84;;;2.23;100.00
11347;BME280;5728;42.722;23.258;2022-12-01T07:44:23;94951.53;;;2.33;100.00
11347;BME280;5728;42.722;23.258;2022-12-01T07:46:50;94932.94;;;2.44;100.00
11347;BME280;5728;42.722;23.258;2022-12-01T07:49:17;94950.19;;;2.53;100.00
11347;BME280;5728;42.722;23.258;2022-12-01T07:51:43;94942.44;;;2.50;100.00
11347;BME280;5728;42.722;23.258;2022-12-01T07:54:10;94946.00;;;2.58;100.00
11347;BME280;5728;42.722;23.258;2022-12-01T07:56:39;94943.72;;;2.73;99.46
11347;BME280;5728;42.722;23.258;2022-12-01T07:59:06;94946.06;;;2.63;99.12
11347;BME280;5728;42.722;23.258;2022-12-01T08:01:34;94943.38;;;2.55;100.00
11347;BME280;5728;42.722;23.258;2022-12-01T08:04:01;94922.16;;;2.59;100.00
11347;BME280;5728;42.722;23.258;2022-12-01T08:06:27;94948.81;;;2.73;100.00
11347;BME280;5728;42.722;23.258;2022-12-01T08:08:54;94946.06;;;2.63;100.00
11347;BME280;5728;42.722;23.258;2022-12-01T08:11:23;94946.00;;;2.56;100.00
11347;BME280;5728;42.722;23.258;2022-12-01T08:13:50;94931.25;;;2.45;100.00
11347;BME280;5728;42.722;23.258;2022-12-01T08:16:18;94949.19;;;2.45;100.00
11347;BME280;5728;42.722;23.258;2022-12-01T08:18:47;94937.31;;;2.50;100.00
11347;BME280;5728;42.722;23.258;2022-12-01T08:21:16;94949.25;;;2.48;99.99
11347;BME280;5728;42.722;23.258;2022-12-01T08:23:43;94953.75;;;2.61;100.00
11347;BME280;5728;42.722;23.258;2022-12-01T08:26:12;94953.66;;;2.56;99.55
11347;BME280;5728;42.722;23.258;2022-12-01T08:28:39;94959.00;;;2.70;100.00
11347;BME280;5728;42.722;23.258;2022-12-01T08:31:08;94955.41;;;2.59;99.21
11347;BME280;5728;42.722;23.258;2022-12-01T08:33:35;94956.31;;;2.61;100.00
11347;BME280;5728;42.722;23.258;2022-12-01T08:36:04;94960.13;;;2.84;100.00
11347;BME280;5728;42.722;23.258;2022-12-01T08:38:31;94950.81;;;2.89;99.74
11347;BME280;5728;42.722;23.258;2022-12-01T08:40:59;94951.53;;;2.82;97.97
11347;BME280;5728;42.722;23.258;2022-12-01T08:43:26;94953.13;;;2.76;97.73
11347;BME280;5728;42.722;23.258;2022-12-01T08:45:52;94952.38;;;2.81;97.08
11347;BME280;5728;42.722;23.258;2022-12-01T08:48:19;94931.91;;;2.83;97.48
11347;BME280;5728;42.722;23.258;2022-12-01T08:50:46;94942.53;;;3.05;96.28
11347;BME280;5728;42.722;23.258;2022-12-01T08:53:14;94950.84;;;2.92;96.67
11347;BME280;5728;42.722;23.258;2022-12-01T08:55:41;94928.66;;;2.91;94.65
11347;BME280;5728;42.722;23.258;2022-12-01T08:58:08;94951.81;;;2.99;95.43
11347;BME280;5728;42.722;23.258;2022-12-01T09:00:34;94945.97;;;3.07;94.32
11347;BME280;5728;42.722;23.258;2022-12-01T09:03:01;94938.28;;;3.07;95.34
11347;BME280;5728;42.722;23.258;2022-12-01T09:05:28;94933.13;;;3.04;94.23
11347;BME280;5728;42.722;23.258;2022-12-01T09:07:54;94940.06;;;3.13;92.84
11347;BME280;5728;42.722;23.258;2022-12-01T09:10:36;94928.69;;;2.94;92.86
11347;BME280;5728;42.722;23.258;2022-12-01T09:13:03;94937.56;;;3.14;93.25
11347;BME280;5728;42.722;23.258;2022-12-01T09:15:30;94930.66;;;3.10;92.91
11347;BME280;5728;42.722;23.258;2022-12-01T09:17:57;94930.81;;;3.19;93.03
11347;BME280;5728;42.722;23.258;2022-12-01T09:20:24;94925.91;;;3.35;92.61
11347;BME280;5728;42.722;23.258;2022-12-01T09:22:51;94930.94;;;3.30;92.72
11347;BME280;5728;42.722;23.258;2022-12-01T09:25:17;94924.03;;;3.25;92.82
11347;BME280;5728;42.722;23.258;2022-12-01T09:27:45;94911.94;;;3.16;92.14
11347;BME280;5728;42.722;23.258;2022-12-01T09:30:13;94926.56;;;3.23;92.79
11347;BME280;5728;42.722;23.258;2022-12-01T09:32:40;94925.75;;;3.26;91.68
11347;BME280;5728;42.722;23.258;2022-12-01T09:35:07;94895.91;;;3.29;91.10
11347;BME280;5728;42.722;23.258;2022-12-01T09:37:34;94913.63;;;3.15;91.70
11347;BME280;5728;42.722;23.258;2022-12-01T09:40:01;94918.16;;;3.33;92.16
11347;BME280;5728;42.722;23.258;2022-12-01T09:42:28;94921.00;;;3.53;91.15
11347;BME280;5728;42.722;23.258;2022-12-01T09:44:57;94933.78;;;2.93;90.17
11347;BME280;5728;42.722;23.258;2022-12-01T09:47:29;94919.13;;;3.40;91.46
11347;BME280;5728;42.722;23.258;2022-12-01T09:49:59;94918.38;;;3.48;90.86
11347;BME280;5728;42.722;23.258;2022-12-01T09:52:32;94910.88;;;3.62;90.06
11347;BME280;5728;42.722;23.258;2022-12-01T09:54:59;94916.69;;;3.49;89.47
11347;BME280;5728;42.722;23.258;2022-12-01T09:57:31;94903.00;;;3.47;89.52
11347;BME280;5728;42.722;23.258;2022-12-01T10:00:06;94910.75;;;3.53;89.94
11347;BME280;5728;42.722;23.258;2022-12-01T10:02:39;94900.53;;;3.56;88.79
11347;BME280;5728;42.722;23.258;2022-12-01T10:05:13;94917.59;;;3.54;88.80
11347;BME280;5728;42.722;23.258;2022-12-01T10:07:44;94902.31;;;3.60;89.14
11347;BME280;5728;42.722;23.258;2022-12-01T10:10:17;94893.81;;;3.64;87.98
11347;BME280;5728;42.722;23.258;2022-12-01T10:12:46;94881.78;;;3.58;88.12
11347;BME280;5728;42.722;23.258;2022-12-01T10:15:26;94891.28;;;3.67;88.49
11347;BME280;5728;42.722;23.258;2022-12-01T10:18:11;94895.75;;;3.81;89.01
11347;BME280;5728;42.722;23.258;2022-12-01T10:20:46;94891.63;;;3.93;87.74
11347;BME280;5728;42.722;23.258;2022-12-01T10:23:39;94904.44;;;3.94;86.92
11347;BME280;5728;42.722;23.258;2022-12-01T10:26:12;94882.00;;;3.75;87.47
11347;BME280;5728;42.722;23.258;2022-12-01T10:28:52;94887.31;;;3.90;88.18
11347;BME280;5728;42.722;23.258;2022-12-01T10:31:29;94884.91;;;4.05;87.02
11347;BME280;5728;42.722;23.258;2022-12-01T10:34:00;94883.88;;;3.91;88.22
11347;BME280;5728;42.722;23.258;2022-12-01T10:36:29;94880.53;;;3.95;87.15
11347;BME280;5728;42.722;23.258;2022-12-01T10:38:58;94888.22;;;3.97;86.53
11347;BME280;5728;42.722;23.258;2022-12-01T10:41:27;94888.91;;;3.82;86.00
11347;BME280;5728;42.722;23.258;2022-12-01T10:43:57;94886.41;;;3.86;86.15
11347;BME280;5728;42.722;23.258;2022-12-01T10:46:31;94889.81;;;3.87;86.42
11347;BME280;5728;42.722;23.258;2022-12-01T10:49:07;94882.09;;;3.85;86.98
11347;BME280;5728;42.722;23.258;2022-12-01T10:51:46;94896.75;;;3.94;86.79
11347;BME280;5728;42.722;23.258;2022-12-01T10:54:13;94872.75;;;3.88;85.20
11347;BME280;5728;42.722;23.258;2022-12-01T10:56:42;94884.84;;;3.99;86.21
11347;BME280;5728;42.722;23.258;2022-12-01T10:59:24;94879.69;;;3.98;85.34
11347;BME280;5728;42.722;23.258;2022-12-01T11:01:54;94882.91;;;3.81;86.24
11347;BME280;5728;42.722;23.258;2022-12-01T11:04:33;94875.28;;;3.86;84.89
11347;BME280;5728;42.722;23.258;2022-12-01T11:07:01;94874.56;;;4.01;84.44
11347;BME280;5728;42.722;23.258;2022-12-01T11:09:29;94878.91;;;4.05;84.99
11347;BME280;5728;42.722;23.258;2022-12-01T11:11:58;94873.75;;;4.00;85.38
11347;BME280;5728;42.722;23.258;2022-12-01T11:14:32;94868.41;;;3.82;84.75
11347;BME280;5728;42.722;23.258;2022-12-01T11:17:16;94875.22;;;3.80;86.32
11347;BME280;5728;42.722;23.258;2022-12-01T11:19:48;94869.44;;;4.01;85.30
11347;BME280;5728;42.722;23.258;2022-12-01T11:22:20;94873.66;;;3.94;85.12
11347;BME280;5728;42.722;23.258;2022-12-01T11:25:01;94865.97;;;3.96;85.14
11347;BME280;5728;42.722;23.258;2022-12-01T11:27:31;94881.34;;;3.96;85.43
11347;BME280;5728;42.722;23.258;2022-12-01T11:30:01;94869.47;;;4.04;85.59
11347;BME280;5728;42.722;23.258;2022-12-01T11:32:33;94865.13;;;3.98;85.25
11347;BME280;5728;42.722;23.258;2022-12-01T11:35:03;94875.41;;;3.98;84.75
11347;BME280;5728;42.722;23.258;2022-12-01T11:37:35;94875.25;;;3.84;85.29
11347;BME280;5728;42.722;23.258;2022-12-01T11:40:13;94876.91;;;3.81;86.06
11347;BME280;5728;42.722;23.258;2022-12-01T11:42:46;94868.56;;;3.97;85.40
11347;BME280;5728;42.722;23.258;2022-12-01T11:45:27;94872.91;;;4.03;84.40
11347;BME280;5728;42.722;23.258;2022-12-01T11:48:00;94877.06;;;3.90;85.87
11347;BME280;5728;42.722;23.258;2022-12-01T11:50:29;94866.63;;;3.78;86.08
11347;BME280;5728;42.722;23.258;2022-12-01T11:52:56;94864.91;;;3.77;86.31
11347;BME280;5728;42.722;23.258;2022-12-01T11:55:25;94900.03;;;3.84;87.04
11347;BME280;5728;42.722;23.258;2022-12-01T11:57:54;94864.59;;;3.50;87.90
11347;BME280;5728;42.722;23.258;2022-12-01T12:00:23;94861.13;;;3.45;89.16
11347;BME280;5728;42.722;23.258;2022-12-01T12:03:13;94855.78;;;3.30;90.31
11347;BME280;5728;42.722;23.258;2022-12-01T12:06:15;94873.81;;;3.37;89.96
11347;BME280;5728;42.722;23.258;2022-12-01T12:11:42;94871.28;;;3.39;90.78
11347;BME280;5728;42.722;23.258;2022-12-01T12:14:24;94864.25;;;3.26;90.82
11347;BME280;5728;42.722;23.258;2022-12-01T12:17:14;94868.59;;;3.30;91.40
11347;BME280;5728;42.722;23.258;2022-12-01T12:20:00;94877.72;;;3.12;91.48
11347;BME280;5728;42.722;23.258;2022-12-01T12:22:40;94876.13;;;3.19;92.01
11347;BME280;5728;42.722;23.258;2022-12-01T12:25:23;94889.50;;;3.00;92.48
11347;BME280;5728;42.722;23.258;2022-12-01T12:28:05;94867.53;;;3.15;93.56
11347;BME280;5728;42.722;23.258;2022-12-01T12:30:40;94876.25;;;3.27;93.94
11347;BME280;5728;42.722;23.258;2022-12-01T12:33:29;94876.28;;;3.31;93.01
11347;BME280;5728;42.722;23.258;2022-12-01T12:36:05;94876.03;;;3.11;92.15
11347;BME280;5728;42.722;23.258;2022-12-01T12:38:56;94895.72;;;3.15;92.54
11347;BME280;5728;42.722;23.258;2022-12-01T12:41:34;94878.09;;;3.37;92.81
11347;BME280;5728;42.722;23.258;2022-12-01T12:44:09;94880.06;;;2.97;92.04
11347;BME280;5728;42.722;23.258;2022-12-01T12:46:46;94872.97;;;3.37;91.19
11347;BME280;5728;42.722;23.258;2022-12-01T12:49:33;94874.56;;;3.29;89.98
11347;BME280;5728;42.722;23.258;2022-12-01T12:52:06;94890.97;;;3.43;91.17
11347;BME280;5728;42.722;23.258;2022-12-01T12:54:43;94889.72;;;3.13;89.26
11347;BME280;5728;42.722;23.258;2022-12-01T12:57:19;94879.41;;;3.10;90.46
11347;BME280;5728;42.722;23.258;2022-12-01T12:59:52;94872.59;;;3.12;90.26
11347;BME280;5728;42.722;23.258;2022-12-01T13:02:25;94880.97;;;2.99;90.84
11347;BME280;5728;42.722;23.258;2022-12-01T13:05:00;94874.69;;;2.81;93.02
11347;BME280;5728;42.722;23.258;2022-12-01T13:07:38;94880.88;;;2.93;91.86
11347;BME280;5728;42.722;23.258;2022-12-01T13:10:15;94851.72;;;2.84;92.50
11347;BME280;5728;42.722;23.258;2022-12-01T13:12:52;94918.47;;;2.97;92.30
11347;BME280;5728;42.722;23.258;2022-12-01T13:15:20;94887.81;;;3.00;93.08
11347;BME280;5728;42.722;23.258;2022-12-01T13:17:50;94884.47;;;3.07;92.26
11347;BME280;5728;42.722;23.258;2022-12-01T13:20:21;94882.84;;;3.09;92.76
11347;BME280;5728;42.722;23.258;2022-12-01T13:22:51;94891.47;;;3.17;91.42
11347;BME280;5728;42.722;23.258;2022-12-01T13:25:22;94880.38;;;3.18;91.11
11347;BME280;5728;42.722;23.258;2022-12-01T13:27:51;94906.84;;;3.17;92.19
11347;BME280;5728;42.722;23.258;2022-12-01T13:30:20;94886.44;;;3.23;92.68
11347;BME280;5728;42.722;23.258;2022-12-01T13:32:48;94902.56;;;3.18;91.59